Airfield :
LOGIN :

Register | Disclaimer

   EN    FR    IT 

 










Legend :    VFR   Marginal VFR   IFR   Intensive IFR   Very Intensive IFR
Visi :
Ceiling :
>= 8 km
>= 3000ft
5 to 8 km
1000 to 3000 ft
1500m to 5 km
500 to 1000 ft
800 to 1500m
200 to 500 ft
< 800m
< 200 ft
Symbols :   Thunderstorms  Fog  Heavy snow  Heavy precipitations  Wind > 20 kt
SIGMETs :     Misc.  Thunderstorms  Icing  Turbulence  Mountain Waves  Volcanic Ashes






- Airport Elevation : -15 ft
- IATA code : RTM


EHRD - Rotterdam Zestienhoven

CURRENT METAR :
  • 192155Z AUTO 00000KT 9999 NCD 09/07 Q1019 NOSIG

EXPIRED METARs :
  • 192125Z AUTO VRB01KT 9999 NSC 09/07 Q1019 BECMG NSW
  • 192055Z AUTO 03003KT 9999 NSC 10/07 Q1019 BECMG NSW
  • 192025Z AUTO 04003KT 9999 NSC 10/07 Q1019 BECMG NSW
  • 191955Z AUTO 05004KT 9999 NSC 11/06 Q1019 BECMG NSW
  • 191925Z AUTO 06004KT 9999 NSC 11/06 Q1019 BECMG NSW
  • 191855Z AUTO 08004KT 9999 NSC 11/06 Q1019 BECMG NSW

TAF TAF EHRD
Valid from the 19 at 18:00 until the 21 at 00:00 UTC


191707Z 1918/2024 08005KT CAVOK
BECMG 2000/2003 VRB03KT 4000 MIFG BR
PROB40
TEMPO 2003/2007 0600 BCFG
BECMG 2007/2010 9999 NSW SCT025
BECMG 2012/2015 35010KT
PROB30
TEMPO 2015/2018 6000 SHRA SCT025CB
BECMG 2022/2024 5000 BR



MET'MAP, your aeronautical weather chart ! - Copyright ORBIFLY December 2007 - Disclaimer

ORBIFLY MET'MAP TEAM :

Programming & Development : Alexandra Zaïnal
Concept & original design : Baudouin d'Aumeries
Assistance for programming : Marc-Olivier Méhu
Technical & hardware support : Manuel Goepfert

Contact : metmap@orbifly.com




SOURCES & CREDITS :

   NOAA